sensor_id;sensor_type;location;lat;lon;timestamp;temperature;humidity
12948;DHT22;6539;49.476;8.484;2023-11-19T00:01:28;8.70;99.90
12948;DHT22;6539;49.476;8.484;2023-11-19T00:04:14;8.70;99.90
12948;DHT22;6539;49.476;8.484;2023-11-19T00:07:00;8.70;99.90
12948;DHT22;6539;49.476;8.484;2023-11-19T00:09:49;8.70;99.90
12948;DHT22;6539;49.476;8.484;2023-11-19T00:12:43;8.80;99.90
12948;DHT22;6539;49.476;8.484;2023-11-19T00:15:31;8.70;99.90
12948;DHT22;6539;49.476;8.484;2023-11-19T00:18:17;8.70;99.90
12948;DHT22;6539;49.476;8.484;2023-11-19T00:21:06;8.70;99.90
12948;DHT22;6539;49.476;8.484;2023-11-19T00:23:53;8.70;99.90
12948;DHT22;6539;49.476;8.484;2023-11-19T00:26:42;8.70;99.90
12948;DHT22;6539;49.476;8.484;2023-11-19T00:29:28;8.70;99.90
12948;DHT22;6539;49.476;8.484;2023-11-19T00:32:14;8.70;99.90
12948;DHT22;6539;49.476;8.484;2023-11-19T00:35:00;8.60;99.90
12948;DHT22;6539;49.476;8.484;2023-11-19T00:37:47;8.70;99.90
12948;DHT22;6539;49.476;8.484;2023-11-19T00:40:33;8.70;99.90
12948;DHT22;6539;49.476;8.484;2023-11-19T00:43:19;8.70;99.90
12948;DHT22;6539;49.476;8.484;2023-11-19T00:46:10;8.70;99.90
12948;DHT22;6539;49.476;8.484;2023-11-19T00:48:56;8.70;99.90
12948;DHT22;6539;49.476;8.484;2023-11-19T00:51:44;8.80;99.90
12948;DHT22;6539;49.476;8.484;2023-11-19T00:54:31;8.70;99.90
12948;DHT22;6539;49.476;8.484;2023-11-19T00:57:21;8.70;99.90
12948;DHT22;6539;49.476;8.484;2023-11-19T01:00:12;8.80;99.90
12948;DHT22;6539;49.476;8.484;2023-11-19T01:03:10;8.80;99.90
12948;DHT22;6539;49.476;8.484;2023-11-19T01:05:57;8.80;99.90
12948;DHT22;6539;49.476;8.484;2023-11-19T01:08:47;8.80;99.90
12948;DHT22;6539;49.476;8.484;2023-11-19T01:11:34;8.90;99.90
12948;DHT22;6539;49.476;8.484;2023-11-19T01:14:20;8.90;99.90
12948;DHT22;6539;49.476;8.484;2023-11-19T01:17:08;8.90;99.90
12948;DHT22;6539;49.476;8.484;2023-11-19T01:19:55;8.90;99.90
12948;DHT22;6539;49.476;8.484;2023-11-19T01:22:44;8.90;99.90
12948;DHT22;6539;49.476;8.484;2023-11-19T01:25:30;8.90;99.90
12948;DHT22;6539;49.476;8.484;2023-11-19T01:28:19;8.90;99.90
12948;DHT22;6539;49.476;8.484;2023-11-19T01:31:06;8.90;99.90
12948;DHT22;6539;49.476;8.484;2023-11-19T01:33:57;8.90;99.90
12948;DHT22;6539;49.476;8.484;2023-11-19T01:36:43;9.00;99.90
12948;DHT22;6539;49.476;8.484;2023-11-19T01:39:32;9.00;99.90
12948;DHT22;6539;49.476;8.484;2023-11-19T01:42:18;9.00;99.90
12948;DHT22;6539;49.476;8.484;2023-11-19T01:45:07;9.00;99.90
12948;DHT22;6539;49.476;8.484;2023-11-19T01:47:55;9.00;99.90
12948;DHT22;6539;49.476;8.484;2023-11-19T01:50:44;9.10;99.90
12948;DHT22;6539;49.476;8.484;2023-11-19T01:53:30;9.00;99.90
12948;DHT22;6539;49.476;8.484;2023-11-19T01:56:20;9.10;99.90
12948;DHT22;6539;49.476;8.484;2023-11-19T01:59:11;9.10;99.90
12948;DHT22;6539;49.476;8.484;2023-11-19T02:01:59;9.10;99.90
12948;DHT22;6539;49.476;8.484;2023-11-19T02:04:47;9.10;99.90
12948;DHT22;6539;49.476;8.484;2023-11-19T02:07:35;9.10;99.90
12948;DHT22;6539;49.476;8.484;2023-11-19T02:10:21;9.20;99.90
12948;DHT22;6539;49.476;8.484;2023-11-19T02:13:10;9.20;99.90
12948;DHT22;6539;49.476;8.484;2023-11-19T02:16:01;9.20;99.90
12948;DHT22;6539;49.476;8.484;2023-11-19T02:18:48;9.20;99.90
12948;DHT22;6539;49.476;8.484;2023-11-19T02:21:39;9.20;99.90
12948;DHT22;6539;49.476;8.484;2023-11-19T02:24:31;9.20;99.90
12948;DHT22;6539;49.476;8.484;2023-11-19T02:30:43;9.30;99.90
12948;DHT22;6539;49.476;8.484;2023-11-19T02:33:30;9.30;99.90
12948;DHT22;6539;49.476;8.484;2023-11-19T02:36:16;9.30;99.90
12948;DHT22;6539;49.476;8.484;2023-11-19T02:39:02;9.30;99.90
12948;DHT22;6539;49.476;8.484;2023-11-19T02:41:56;9.40;99.90
12948;DHT22;6539;49.476;8.484;2023-11-19T02:44:45;9.40;99.90
12948;DHT22;6539;49.476;8.484;2023-11-19T02:47:32;9.40;99.90
12948;DHT22;6539;49.476;8.484;2023-11-19T02:50:20;9.40;99.90
12948;DHT22;6539;49.476;8.484;2023-11-19T02:53:10;9.40;99.90
12948;DHT22;6539;49.476;8.484;2023-11-19T02:55:58;9.50;99.90
12948;DHT22;6539;49.476;8.484;2023-11-19T02:58:52;9.50;99.90
12948;DHT22;6539;49.476;8.484;2023-11-19T03:01:41;9.50;99.90
12948;DHT22;6539;49.476;8.484;2023-11-19T03:04:29;9.50;99.90
12948;DHT22;6539;49.476;8.484;2023-11-19T03:07:17;9.50;99.90
12948;DHT22;6539;49.476;8.484;2023-11-19T03:10:03;9.50;99.90
12948;DHT22;6539;49.476;8.484;2023-11-19T03:12:51;9.50;99.90
12948;DHT22;6539;49.476;8.484;2023-11-19T03:15:39;9.50;99.90
12948;DHT22;6539;49.476;8.484;2023-11-19T03:18:31;9.60;99.90
12948;DHT22;6539;49.476;8.484;2023-11-19T03:21:17;9.60;99.90
12948;DHT22;6539;49.476;8.484;2023-11-19T03:24:03;9.70;99.90
12948;DHT22;6539;49.476;8.484;2023-11-19T03:26:49;9.70;99.90
12948;DHT22;6539;49.476;8.484;2023-11-19T03:29:38;9.70;99.90
12948;DHT22;6539;49.476;8.484;2023-11-19T03:32:27;9.70;99.90
12948;DHT22;6539;49.476;8.484;2023-11-19T03:35:13;9.70;99.90
12948;DHT22;6539;49.476;8.484;2023-11-19T03:37:59;9.80;99.90
12948;DHT22;6539;49.476;8.484;2023-11-19T03:40:49;9.80;99.90
12948;DHT22;6539;49.476;8.484;2023-11-19T03:43:35;9.80;99.90
12948;DHT22;6539;49.476;8.484;2023-11-19T03:46:23;9.80;99.90
12948;DHT22;6539;49.476;8.484;2023-11-19T03:49:13;9.80;99.90
12948;DHT22;6539;49.476;8.484;2023-11-19T03:52:02;9.90;99.90
12948;DHT22;6539;49.476;8.484;2023-11-19T03:54:50;9.90;99.90
12948;DHT22;6539;49.476;8.484;2023-11-19T03:57:36;9.90;99.90
12948;DHT22;6539;49.476;8.484;2023-11-19T04:00:22;9.90;99.90
12948;DHT22;6539;49.476;8.484;2023-11-19T04:03:08;9.90;99.90
12948;DHT22;6539;49.476;8.484;2023-11-19T04:05:54;10.00;99.90
12948;DHT22;6539;49.476;8.484;2023-11-19T04:08:47;10.00;99.90
12948;DHT22;6539;49.476;8.484;2023-11-19T04:11:38;10.00;99.90
12948;DHT22;6539;49.476;8.484;2023-11-19T04:14:25;10.10;99.90
12948;DHT22;6539;49.476;8.484;2023-11-19T04:17:12;10.10;99.90
12948;DHT22;6539;49.476;8.484;2023-11-19T04:20:01;10.10;99.90
12948;DHT22;6539;49.476;8.484;2023-11-19T04:22:47;10.10;99.90
12948;DHT22;6539;49.476;8.484;2023-11-19T04:25:36;10.10;99.90
12948;DHT22;6539;49.476;8.484;2023-11-19T04:28:25;10.20;99.90
12948;DHT22;6539;49.476;8.484;2023-11-19T04:31:13;10.20;99.90
12948;DHT22;6539;49.476;8.484;2023-11-19T04:34:00;10.20;99.90
12948;DHT22;6539;49.476;8.484;2023-11-19T04:36:46;10.30;99.90
12948;DHT22;6539;49.476;8.484;2023-11-19T04:39:34;10.30;99.90
12948;DHT22;6539;49.476;8.484;2023-11-19T04:42:24;10.40;99.90
12948;DHT22;6539;49.476;8.484;2023-11-19T04:45:10;10.40;99.90
12948;DHT22;6539;49.476;8.484;2023-11-19T04:47:56;10.40;99.90
12948;DHT22;6539;49.476;8.484;2023-11-19T04:50:45;10.40;99.90
12948;DHT22;6539;49.476;8.484;2023-11-19T04:53:31;10.40;99.90
12948;DHT22;6539;49.476;8.484;2023-11-19T04:56:18;10.40;99.90
12948;DHT22;6539;49.476;8.484;2023-11-19T04:59:06;10.50;99.90
12948;DHT22;6539;49.476;8.484;2023-11-19T05:01:52;10.50;99.90
12948;DHT22;6539;49.476;8.484;2023-11-19T05:04:43;10.50;99.90
12948;DHT22;6539;49.476;8.484;2023-11-19T05:07:32;10.50;99.90
12948;DHT22;6539;49.476;8.484;2023-11-19T05:10:22;10.60;99.90
12948;DHT22;6539;49.476;8.484;2023-11-19T05:13:08;10.60;99.90
12948;DHT22;6539;49.476;8.484;2023-11-19T05:15:54;10.70;99.90
12948;DHT22;6539;49.476;8.484;2023-11-19T05:18:43;10.70;99.90
12948;DHT22;6539;49.476;8.484;2023-11-19T05:21:29;10.70;99.90
12948;DHT22;6539;49.476;8.484;2023-11-19T05:24:15;10.70;99.90
12948;DHT22;6539;49.476;8.484;2023-11-19T05:27:01;10.80;99.90
12948;DHT22;6539;49.476;8.484;2023-11-19T05:29:47;10.80;99.90
12948;DHT22;6539;49.476;8.484;2023-11-19T05:32:36;10.80;99.90
12948;DHT22;6539;49.476;8.484;2023-11-19T05:35:24;10.80;99.90
12948;DHT22;6539;49.476;8.484;2023-11-19T05:38:13;10.80;99.90
12948;DHT22;6539;49.476;8.484;2023-11-19T05:41:02;10.80;99.90
12948;DHT22;6539;49.476;8.484;2023-11-19T05:43:51;10.80;99.90
12948;DHT22;6539;49.476;8.484;2023-11-19T05:46:37;10.90;99.90
12948;DHT22;6539;49.476;8.484;2023-11-19T05:49:30;10.90;99.90
12948;DHT22;6539;49.476;8.484;2023-11-19T05:52:16;10.90;99.90
12948;DHT22;6539;49.476;8.484;2023-11-19T05:55:06;10.90;99.90
12948;DHT22;6539;49.476;8.484;2023-11-19T05:57:55;10.90;99.90
12948;DHT22;6539;49.476;8.484;2023-11-19T06:00:41;10.90;99.90
12948;DHT22;6539;49.476;8.484;2023-11-19T06:03:27;10.90;99.90
12948;DHT22;6539;49.476;8.484;2023-11-19T06:06:16;11.00;99.90
12948;DHT22;6539;49.476;8.484;2023-11-19T06:09:02;11.10;99.90
12948;DHT22;6539;49.476;8.484;2023-11-19T06:11:52;11.10;99.90
12948;DHT22;6539;49.476;8.484;2023-11-19T06:14:38;11.10;99.90
12948;DHT22;6539;49.476;8.484;2023-11-19T06:17:29;11.20;99.90
12948;DHT22;6539;49.476;8.484;2023-11-19T06:20:15;11.30;99.90
12948;DHT22;6539;49.476;8.484;2023-11-19T06:23:03;11.30;99.90
12948;DHT22;6539;49.476;8.484;2023-11-19T06:25:49;11.30;99.90
12948;DHT22;6539;49.476;8.484;2023-11-19T06:28:38;11.30;99.90
12948;DHT22;6539;49.476;8.484;2023-11-19T06:31:26;11.30;99.90
12948;DHT22;6539;49.476;8.484;2023-11-19T06:34:12;11.30;99.90
12948;DHT22;6539;49.476;8.484;2023-11-19T06:36:58;11.40;99.90
12948;DHT22;6539;49.476;8.484;2023-11-19T06:39:44;11.40;99.90
12948;DHT22;6539;49.476;8.484;2023-11-19T06:42:31;11.30;99.90
12948;DHT22;6539;49.476;8.484;2023-11-19T06:45:17;11.50;99.90
12948;DHT22;6539;49.476;8.484;2023-11-19T06:48:06;11.50;99.90
12948;DHT22;6539;49.476;8.484;2023-11-19T06:50:53;11.50;99.90
12948;DHT22;6539;49.476;8.484;2023-11-19T06:53:39;11.50;99.90
12948;DHT22;6539;49.476;8.484;2023-11-19T06:56:26;11.50;99.90
12948;DHT22;6539;49.476;8.484;2023-11-19T06:59:12;11.50;99.90
12948;DHT22;6539;49.476;8.484;2023-11-19T07:01:58;11.50;99.90
12948;DHT22;6539;49.476;8.484;2023-11-19T07:04:45;11.60;99.90
12948;DHT22;6539;49.476;8.484;2023-11-19T07:07:32;11.60;99.90
12948;DHT22;6539;49.476;8.484;2023-11-19T07:10:21;11.50;99.90
12948;DHT22;6539;49.476;8.484;2023-11-19T07:13:09;11.60;99.90
12948;DHT22;6539;49.476;8.484;2023-11-19T07:15:56;11.60;99.90
12948;DHT22;6539;49.476;8.484;2023-11-19T07:18:46;11.60;99.90
12948;DHT22;6539;49.476;8.484;2023-11-19T07:21:41;11.60;99.90
12948;DHT22;6539;49.476;8.484;2023-11-19T07:24:29;11.70;99.90
12948;DHT22;6539;49.476;8.484;2023-11-19T07:27:18;11.80;99.90
12948;DHT22;6539;49.476;8.484;2023-11-19T07:30:06;11.90;99.90
12948;DHT22;6539;49.476;8.484;2023-11-19T07:32:58;12.10;99.90
12948;DHT22;6539;49.476;8.484;2023-11-19T07:35:44;12.30;99.90
12948;DHT22;6539;49.476;8.484;2023-11-19T07:38:32;12.40;99.90
12948;DHT22;6539;49.476;8.484;2023-11-19T07:41:18;12.60;99.90
12948;DHT22;6539;49.476;8.484;2023-11-19T07:44:05;12.70;99.90
12948;DHT22;6539;49.476;8.484;2023-11-19T07:46:52;12.70;99.90
12948;DHT22;6539;49.476;8.484;2023-11-19T07:49:38;12.60;99.90
12948;DHT22;6539;49.476;8.484;2023-11-19T07:52:27;12.60;99.90
12948;DHT22;6539;49.476;8.484;2023-11-19T07:55:20;12.50;99.90
12948;DHT22;6539;49.476;8.484;2023-11-19T07:58:10;12.40;99.90
12948;DHT22;6539;49.476;8.484;2023-11-19T08:01:00;12.30;99.90
12948;DHT22;6539;49.476;8.484;2023-11-19T08:03:49;12.10;99.90
12948;DHT22;6539;49.476;8.484;2023-11-19T08:06:40;12.00;99.90
12948;DHT22;6539;49.476;8.484;2023-11-19T08:09:26;12.00;99.90
12948;DHT22;6539;49.476;8.484;2023-11-19T08:12:13;11.90;99.90
12948;DHT22;6539;49.476;8.484;2023-11-19T08:15:04;11.80;99.90
12948;DHT22;6539;49.476;8.484;2023-11-19T08:17:51;11.90;99.90
12948;DHT22;6539;49.476;8.484;2023-11-19T08:20:39;11.80;99.90
12948;DHT22;6539;49.476;8.484;2023-11-19T08:23:29;11.80;99.90
12948;DHT22;6539;49.476;8.484;2023-11-19T08:26:16;11.90;99.90
12948;DHT22;6539;49.476;8.484;2023-11-19T08:29:03;11.90;99.90
12948;DHT22;6539;49.476;8.484;2023-11-19T08:31:49;11.90;99.90
12948;DHT22;6539;49.476;8.484;2023-11-19T08:34:35;11.90;99.90
12948;DHT22;6539;49.476;8.484;2023-11-19T08:37:21;12.00;99.90
12948;DHT22;6539;49.476;8.484;2023-11-19T08:40:10;12.10;99.90
12948;DHT22;6539;49.476;8.484;2023-11-19T08:42:57;12.10;99.90
12948;DHT22;6539;49.476;8.484;2023-11-19T08:45:46;12.20;99.90
12948;DHT22;6539;49.476;8.484;2023-11-19T08:48:34;12.30;99.90
12948;DHT22;6539;49.476;8.484;2023-11-19T08:51:24;12.50;99.90
12948;DHT22;6539;49.476;8.484;2023-11-19T08:54:14;12.70;99.90
12948;DHT22;6539;49.476;8.484;2023-11-19T08:57:04;13.00;99.90
12948;DHT22;6539;49.476;8.484;2023-11-19T08:59:53;13.30;99.90
12948;DHT22;6539;49.476;8.484;2023-11-19T09:02:41;13.40;99.90
12948;DHT22;6539;49.476;8.484;2023-11-19T09:05:28;13.70;99.90
12948;DHT22;6539;49.476;8.484;2023-11-19T09:08:14;14.00;99.90
12948;DHT22;6539;49.476;8.484;2023-11-19T09:11:07;14.10;99.90
12948;DHT22;6539;49.476;8.484;2023-11-19T09:13:54;14.20;99.90
12948;DHT22;6539;49.476;8.484;2023-11-19T09:16:40;14.30;99.90
12948;DHT22;6539;49.476;8.484;2023-11-19T09:19:28;14.30;99.90
12948;DHT22;6539;49.476;8.484;2023-11-19T09:22:18;14.50;99.90
12948;DHT22;6539;49.476;8.484;2023-11-19T09:25:04;14.50;99.90
12948;DHT22;6539;49.476;8.484;2023-11-19T09:27:50;14.70;99.90
12948;DHT22;6539;49.476;8.484;2023-11-19T09:30:39;15.10;99.90
12948;DHT22;6539;49.476;8.484;2023-11-19T09:33:25;15.30;99.90
12948;DHT22;6539;49.476;8.484;2023-11-19T09:36:12;15.50;99.90
12948;DHT22;6539;49.476;8.484;2023-11-19T09:38:59;15.30;99.90
12948;DHT22;6539;49.476;8.484;2023-11-19T09:41:49;15.30;99.90
12948;DHT22;6539;49.476;8.484;2023-11-19T09:44:38;15.20;99.90
12948;DHT22;6539;49.476;8.484;2023-11-19T09:47:30;15.00;99.90
12948;DHT22;6539;49.476;8.484;2023-11-19T09:50:20;14.90;99.90
12948;DHT22;6539;49.476;8.484;2023-11-19T09:53:06;14.80;99.90
12948;DHT22;6539;49.476;8.484;2023-11-19T09:55:53;14.80;99.90
12948;DHT22;6539;49.476;8.484;2023-11-19T09:58:40;14.80;99.90
12948;DHT22;6539;49.476;8.484;2023-11-19T10:01:30;14.70;99.90
12948;DHT22;6539;49.476;8.484;2023-11-19T10:04:19;14.60;99.90
12948;DHT22;6539;49.476;8.484;2023-11-19T10:07:05;14.60;99.90
12948;DHT22;6539;49.476;8.484;2023-11-19T10:09:51;14.50;99.90
12948;DHT22;6539;49.476;8.484;2023-11-19T10:12:37;14.40;99.90
12948;DHT22;6539;49.476;8.484;2023-11-19T10:15:25;14.50;99.90
12948;DHT22;6539;49.476;8.484;2023-11-19T10:18:16;14.70;99.90
12948;DHT22;6539;49.476;8.484;2023-11-19T10:21:02;15.20;99.90
12948;DHT22;6539;49.476;8.484;2023-11-19T10:23:50;15.50;99.90
12948;DHT22;6539;49.476;8.484;2023-11-19T10:26:37;15.30;99.90
12948;DHT22;6539;49.476;8.484;2023-11-19T10:29:24;15.20;99.90
12948;DHT22;6539;49.476;8.484;2023-11-19T10:32:14;15.20;99.90
12948;DHT22;6539;49.476;8.484;2023-11-19T10:35:07;15.20;99.90
12948;DHT22;6539;49.476;8.484;2023-11-19T10:37:54;15.20;99.90
12948;DHT22;6539;49.476;8.484;2023-11-19T10:40:40;15.30;99.90
12948;DHT22;6539;49.476;8.484;2023-11-19T10:43:28;15.70;99.90
12948;DHT22;6539;49.476;8.484;2023-11-19T10:46:17;15.70;99.90
12948;DHT22;6539;49.476;8.484;2023-11-19T10:49:07;15.70;99.90
12948;DHT22;6539;49.476;8.484;2023-11-19T10:51:57;16.00;99.90
12948;DHT22;6539;49.476;8.484;2023-11-19T10:54:49;16.00;99.90
12948;DHT22;6539;49.476;8.484;2023-11-19T10:57:43;15.60;99.90
12948;DHT22;6539;49.476;8.484;2023-11-19T11:00:54;15.30;99.90
12948;DHT22;6539;49.476;8.484;2023-11-19T11:03:44;15.20;99.90
12948;DHT22;6539;49.476;8.484;2023-11-19T11:06:35;15.10;99.90
12948;DHT22;6539;49.476;8.484;2023-11-19T11:09:23;15.00;99.90
12948;DHT22;6539;49.476;8.484;2023-11-19T11:12:09;15.00;99.90
12948;DHT22;6539;49.476;8.484;2023-11-19T11:14:58;14.90;99.90
12948;DHT22;6539;49.476;8.484;2023-11-19T11:17:45;14.80;99.90
12948;DHT22;6539;49.476;8.484;2023-11-19T11:20:35;14.70;99.90
12948;DHT22;6539;49.476;8.484;2023-11-19T11:26:40;14.70;99.90
12948;DHT22;6539;49.476;8.484;2023-11-19T11:30:05;14.70;99.90
12948;DHT22;6539;49.476;8.484;2023-11-19T11:33:44;14.60;99.90
12948;DHT22;6539;49.476;8.484;2023-11-19T11:36:20;14.70;99.90
12948;DHT22;6539;49.476;8.484;2023-11-19T11:39:08;14.70;99.90
12948;DHT22;6539;49.476;8.484;2023-11-19T11:48:17;15.00;99.90
12948;DHT22;6539;49.476;8.484;2023-11-19T11:51:08;15.10;99.90
12948;DHT22;6539;49.476;8.484;2023-11-19T11:53:54;15.30;99.90
12948;DHT22;6539;49.476;8.484;2023-11-19T11:57:01;15.60;99.90
12948;DHT22;6539;49.476;8.484;2023-11-19T11:59:48;15.80;99.90
12948;DHT22;6539;49.476;8.484;2023-11-19T12:02:35;15.80;99.90
12948;DHT22;6539;49.476;8.484;2023-11-19T12:05:23;15.80;99.90
12948;DHT22;6539;49.476;8.484;2023-11-19T12:08:11;16.00;99.90
12948;DHT22;6539;49.476;8.484;2023-11-19T12:11:03;15.90;99.90
12948;DHT22;6539;49.476;8.484;2023-11-19T12:13:55;15.80;99.90
12948;DHT22;6539;49.476;8.484;2023-11-19T12:16:44;15.80;99.90
12948;DHT22;6539;49.476;8.484;2023-11-19T12:19:30;15.70;99.90
12948;DHT22;6539;49.476;8.484;2023-11-19T12:22:17;15.60;99.90
12948;DHT22;6539;49.476;8.484;2023-11-19T12:25:08;15.50;99.90
12948;DHT22;6539;49.476;8.484;2023-11-19T12:27:57;15.50;99.90
12948;DHT22;6539;49.476;8.484;2023-11-19T12:30:44;15.40;99.90
12948;DHT22;6539;49.476;8.484;2023-11-19T12:33:31;15.40;99.90
12948;DHT22;6539;49.476;8.484;2023-11-19T12:36:20;15.40;99.90
12948;DHT22;6539;49.476;8.484;2023-11-19T12:39:09;15.40;99.90
12948;DHT22;6539;49.476;8.484;2023-11-19T12:42:00;15.40;99.90
12948;DHT22;6539;49.476;8.484;2023-11-19T12:44:56;15.50;99.90
12948;DHT22;6539;49.476;8.484;2023-11-19T12:47:44;15.40;99.90
12948;DHT22;6539;49.476;8.484;2023-11-19T12:50:57;15.40;99.90
12948;DHT22;6539;49.476;8.484;2023-11-19T12:56:40;15.30;99.90
12948;DHT22;6539;49.476;8.484;2023-11-19T12:59:27;15.20;99.90
12948;DHT22;6539;49.476;8.484;2023-11-19T13:02:16;15.30;99.90
12948;DHT22;6539;49.476;8.484;2023-11-19T13:05:30;15.20;99.90
12948;DHT22;6539;49.476;8.484;2023-11-19T13:08:18;15.20;99.90
12948;DHT22;6539;49.476;8.484;2023-11-19T13:11:04;15.20;99.90
12948;DHT22;6539;49.476;8.484;2023-11-19T13:13:59;15.30;99.90
12948;DHT22;6539;49.476;8.484;2023-11-19T13:16:50;15.40;99.90
12948;DHT22;6539;49.476;8.484;2023-11-19T13:19:38;15.30;99.90
12948;DHT22;6539;49.476;8.484;2023-11-19T13:22:24;15.20;99.90
12948;DHT22;6539;49.476;8.484;2023-11-19T13:25:10;15.10;99.90
12948;DHT22;6539;49.476;8.484;2023-11-19T13:28:00;15.10;99.90
12948;DHT22;6539;49.476;8.484;2023-11-19T13:30:46;15.20;99.90
12948;DHT22;6539;49.476;8.484;2023-11-19T13:33:37;15.20;99.90
12948;DHT22;6539;49.476;8.484;2023-11-19T13:36:24;15.40;99.90
12948;DHT22;6539;49.476;8.484;2023-11-19T13:39:13;15.50;99.90
12948;DHT22;6539;49.476;8.484;2023-11-19T13:42:10;15.30;99.90
12948;DHT22;6539;49.476;8.484;2023-11-19T13:44:59;15.30;99.90
12948;DHT22;6539;49.476;8.484;2023-11-19T13:47:45;15.30;99.90
12948;DHT22;6539;49.476;8.484;2023-11-19T13:50:34;15.40;99.90
12948;DHT22;6539;49.476;8.484;2023-11-19T13:53:20;15.40;99.90
12948;DHT22;6539;49.476;8.484;2023-11-19T13:56:09;15.40;99.90
12948;DHT22;6539;49.476;8.484;2023-11-19T13:58:58;15.40;99.90
12948;DHT22;6539;49.476;8.484;2023-11-19T14:01:44;15.30;99.90
12948;DHT22;6539;49.476;8.484;2023-11-19T14:04:30;15.30;99.90
12948;DHT22;6539;49.476;8.484;2023-11-19T14:07:17;15.20;99.90
12948;DHT22;6539;49.476;8.484;2023-11-19T14:10:04;15.10;99.90
12948;DHT22;6539;49.476;8.484;2023-11-19T14:12:52;15.10;99.90
12948;DHT22;6539;49.476;8.484;2023-11-19T14:15:42;15.10;99.90
12948;DHT22;6539;49.476;8.484;2023-11-19T14:18:33;15.10;99.90
12948;DHT22;6539;49.476;8.484;2023-11-19T14:21:22;15.20;99.90
12948;DHT22;6539;49.476;8.484;2023-11-19T14:24:09;15.20;99.90
12948;DHT22;6539;49.476;8.484;2023-11-19T14:26:57;15.20;99.90
12948;DHT22;6539;49.476;8.484;2023-11-19T14:29:46;15.30;99.90
12948;DHT22;6539;49.476;8.484;2023-11-19T14:32:33;15.30;99.90
12948;DHT22;6539;49.476;8.484;2023-11-19T14:35:26;15.20;99.90
12948;DHT22;6539;49.476;8.484;2023-11-19T14:38:15;15.30;99.90
12948;DHT22;6539;49.476;8.484;2023-11-19T14:41:01;15.30;99.90
12948;DHT22;6539;49.476;8.484;2023-11-19T14:43:48;15.20;99.90
12948;DHT22;6539;49.476;8.484;2023-11-19T14:46:34;15.10;99.90
12948;DHT22;6539;49.476;8.484;2023-11-19T14:49:20;15.20;99.90
12948;DHT22;6539;49.476;8.484;2023-11-19T14:52:09;15.20;99.90
12948;DHT22;6539;49.476;8.484;2023-11-19T14:55:00;15.20;99.90
12948;DHT22;6539;49.476;8.484;2023-11-19T14:57:48;15.10;99.90
12948;DHT22;6539;49.476;8.484;2023-11-19T15:00:36;15.10;99.90
12948;DHT22;6539;49.476;8.484;2023-11-19T15:03:24;15.10;99.90
12948;DHT22;6539;49.476;8.484;2023-11-19T15:06:11;15.00;99.90
12948;DHT22;6539;49.476;8.484;2023-11-19T15:08:57;15.00;99.90
12948;DHT22;6539;49.476;8.484;2023-11-19T15:11:43;14.90;99.90
12948;DHT22;6539;49.476;8.484;2023-11-19T15:14:34;14.90;99.90
12948;DHT22;6539;49.476;8.484;2023-11-19T15:17:22;14.80;99.90
12948;DHT22;6539;49.476;8.484;2023-11-19T15:20:11;14.80;99.90
12948;DHT22;6539;49.476;8.484;2023-11-19T15:22:59;14.70;99.90
12948;DHT22;6539;49.476;8.484;2023-11-19T15:25:45;14.60;99.90
12948;DHT22;6539;49.476;8.484;2023-11-19T15:28:31;14.60;99.90
12948;DHT22;6539;49.476;8.484;2023-11-19T15:31:17;14.60;99.90
12948;DHT22;6539;49.476;8.484;2023-11-19T15:34:06;14.50;99.90
12948;DHT22;6539;49.476;8.484;2023-11-19T15:36:52;14.50;99.90
12948;DHT22;6539;49.476;8.484;2023-11-19T15:39:41;14.60;99.90
12948;DHT22;6539;49.476;8.484;2023-11-19T15:42:27;14.60;99.90
12948;DHT22;6539;49.476;8.484;2023-11-19T15:45:16;14.50;99.90
12948;DHT22;6539;49.476;8.484;2023-11-19T15:48:05;14.50;99.90
12948;DHT22;6539;49.476;8.484;2023-11-19T15:50:52;14.50;99.90
12948;DHT22;6539;49.476;8.484;2023-11-19T15:53:38;14.50;99.90
12948;DHT22;6539;49.476;8.484;2023-11-19T15:56:24;14.50;99.90
12948;DHT22;6539;49.476;8.484;2023-11-19T15:59:11;14.40;99.90
12948;DHT22;6539;49.476;8.484;2023-11-19T16:01:57;14.50;99.90
12948;DHT22;6539;49.476;8.484;2023-11-19T16:04:43;14.40;99.90
12948;DHT22;6539;49.476;8.484;2023-11-19T16:07:35;14.40;99.90
12948;DHT22;6539;49.476;8.484;2023-11-19T16:10:26;14.50;99.90
12948;DHT22;6539;49.476;8.484;2023-11-19T16:13:15;14.60;99.90
12948;DHT22;6539;49.476;8.484;2023-11-19T16:16:04;14.60;99.90
12948;DHT22;6539;49.476;8.484;2023-11-19T16:18:50;14.50;99.90
12948;DHT22;6539;49.476;8.484;2023-11-19T16:21:37;14.40;99.90
12948;DHT22;6539;49.476;8.484;2023-11-19T16:24:23;14.30;99.90
12948;DHT22;6539;49.476;8.484;2023-11-19T16:27:11;14.20;99.90
12948;DHT22;6539;49.476;8.484;2023-11-19T16:29:58;14.20;99.90
12948;DHT22;6539;49.476;8.484;2023-11-19T16:32:53;14.20;99.90
12948;DHT22;6539;49.476;8.484;2023-11-19T16:35:42;14.10;99.90
12948;DHT22;6539;49.476;8.484;2023-11-19T16:38:28;14.10;99.90
12948;DHT22;6539;49.476;8.484;2023-11-19T16:41:21;14.00;99.90
12948;DHT22;6539;49.476;8.484;2023-11-19T16:44:08;14.10;99.90
12948;DHT22;6539;49.476;8.484;2023-11-19T16:46:54;14.00;99.90
12948;DHT22;6539;49.476;8.484;2023-11-19T16:49:43;14.00;99.90
12948;DHT22;6539;49.476;8.484;2023-11-19T16:52:31;13.90;99.90
12948;DHT22;6539;49.476;8.484;2023-11-19T16:55:20;13.90;99.90
12948;DHT22;6539;49.476;8.484;2023-11-19T16:58:11;14.00;99.90
12948;DHT22;6539;49.476;8.484;2023-11-19T17:00:59;13.90;99.90
12948;DHT22;6539;49.476;8.484;2023-11-19T17:03:45;13.90;99.90
12948;DHT22;6539;49.476;8.484;2023-11-19T17:06:34;13.90;99.90
12948;DHT22;6539;49.476;8.484;2023-11-19T17:09:23;13.90;99.90
12948;DHT22;6539;49.476;8.484;2023-11-19T17:12:10;13.90;99.90
12948;DHT22;6539;49.476;8.484;2023-11-19T17:14:57;13.90;99.90
12948;DHT22;6539;49.476;8.484;2023-11-19T17:17:49;13.80;99.90
12948;DHT22;6539;49.476;8.484;2023-11-19T17:20:35;13.90;99.90
12948;DHT22;6539;49.476;8.484;2023-11-19T17:23:23;13.90;99.90
12948;DHT22;6539;49.476;8.484;2023-11-19T17:26:11;13.80;99.90
12948;DHT22;6539;49.476;8.484;2023-11-19T17:28:57;13.80;99.90
12948;DHT22;6539;49.476;8.484;2023-11-19T17:31:43;13.90;99.90
12948;DHT22;6539;49.476;8.484;2023-11-19T17:34:32;13.90;99.90
12948;DHT22;6539;49.476;8.484;2023-11-19T17:37:21;13.90;99.90
12948;DHT22;6539;49.476;8.484;2023-11-19T17:40:09;13.90;99.90
12948;DHT22;6539;49.476;8.484;2023-11-19T17:43:01;13.90;99.90
12948;DHT22;6539;49.476;8.484;2023-11-19T17:45:50;13.90;99.90
12948;DHT22;6539;49.476;8.484;2023-11-19T17:48:48;13.90;99.90
12948;DHT22;6539;49.476;8.484;2023-11-19T17:51:40;14.00;99.90
12948;DHT22;6539;49.476;8.484;2023-11-19T17:54:26;14.00;99.90
12948;DHT22;6539;49.476;8.484;2023-11-19T17:57:20;13.90;99.90
12948;DHT22;6539;49.476;8.484;2023-11-19T18:00:12;13.90;99.90
12948;DHT22;6539;49.476;8.484;2023-11-19T18:03:01;13.80;99.90
12948;DHT22;6539;49.476;8.484;2023-11-19T18:05:47;13.80;99.90
12948;DHT22;6539;49.476;8.484;2023-11-19T18:08:35;13.80;99.90
12948;DHT22;6539;49.476;8.484;2023-11-19T18:11:21;13.80;99.90
12948;DHT22;6539;49.476;8.484;2023-11-19T18:14:10;13.70;99.90
12948;DHT22;6539;49.476;8.484;2023-11-19T18:16:58;13.60;99.90
12948;DHT22;6539;49.476;8.484;2023-11-19T18:19:44;13.50;99.90
12948;DHT22;6539;49.476;8.484;2023-11-19T18:22:30;13.50;99.90